createdAt,value
2023-05-24T00:00:31.270Z,1022.51
2023-05-24T00:01:31.230Z,1022.53
2023-05-24T00:02:31.265Z,1022.50
2023-05-24T00:03:31.246Z,1022.53
2023-05-24T00:04:31.232Z,1022.47
2023-05-24T00:05:31.504Z,1022.53
2023-05-24T00:06:31.152Z,1022.52
2023-05-24T00:07:31.158Z,1022.55
2023-05-24T00:08:31.141Z,1022.54
2023-05-24T00:09:31.152Z,1022.51
2023-05-24T00:10:31.103Z,1022.54
2023-05-24T00:11:31.098Z,1022.53
2023-05-24T00:12:31.095Z,1022.57
2023-05-24T00:13:31.077Z,1022.56
2023-05-24T00:14:31.070Z,1022.56
2023-05-24T00:15:31.059Z,1022.51
2023-05-24T00:16:31.067Z,1022.50
2023-05-24T00:17:31.078Z,1022.53
2023-05-24T00:18:31.034Z,1022.45
2023-05-24T00:19:31.004Z,1022.48
2023-05-24T00:20:31.065Z,1022.49
2023-05-24T00:21:30.962Z,1022.46
2023-05-24T00:22:30.951Z,1022.48
2023-05-24T00:23:30.966Z,1022.43
2023-05-24T00:24:30.996Z,1022.46
2023-05-24T00:25:30.912Z,1022.43
2023-05-24T00:26:30.900Z,1022.42
2023-05-24T00:27:30.909Z,1022.44
2023-05-24T00:28:30.931Z,1022.39
2023-05-24T00:29:32.273Z,1022.36
2023-05-24T00:30:30.888Z,1022.33
2023-05-24T00:31:30.914Z,1022.34
2023-05-24T00:32:30.860Z,1022.35
2023-05-24T00:33:30.826Z,1022.32
2023-05-24T00:34:30.887Z,1022.34
2023-05-24T00:35:30.795Z,1022.32
2023-05-24T00:36:30.851Z,1022.31
2023-05-24T00:37:30.846Z,1022.29
2023-05-24T00:38:30.751Z,1022.30
2023-05-24T00:39:30.836Z,1022.27
2023-05-24T00:40:30.776Z,1022.28
2023-05-24T00:41:30.775Z,1022.31
2023-05-24T00:42:30.799Z,1022.30
2023-05-24T00:43:30.689Z,1022.28
2023-05-24T00:44:30.742Z,1022.24
2023-05-24T00:45:32.987Z,1022.28
2023-05-24T00:46:30.929Z,1022.25
2023-05-24T00:47:30.832Z,1022.22
2023-05-24T00:48:30.673Z,1022.23
2023-05-24T00:49:30.632Z,1022.29
2023-05-24T00:50:30.664Z,1022.32
2023-05-24T00:51:30.652Z,1022.28
2023-05-24T00:52:30.624Z,1022.27
2023-05-24T00:53:30.621Z,1022.25
2023-05-24T00:54:30.607Z,1022.27
2023-05-24T00:55:30.567Z,1022.28
2023-05-24T00:56:30.553Z,1022.31
2023-05-24T00:57:30.545Z,1022.32
2023-05-24T00:58:30.519Z,1022.27
2023-05-24T00:59:30.536Z,1022.24
2023-05-24T01:00:30.510Z,1022.22
2023-05-24T01:01:30.544Z,1022.23
2023-05-24T01:02:30.549Z,1022.22
2023-05-24T01:03:30.641Z,1022.24
2023-05-24T01:04:30.435Z,1022.22
2023-05-24T01:05:30.460Z,1022.24
2023-05-24T01:06:30.410Z,1022.24
2023-05-24T01:07:30.430Z,1022.20
2023-05-24T01:08:30.428Z,1022.24
2023-05-24T01:09:30.409Z,1022.25
2023-05-24T01:10:30.377Z,1022.23
2023-05-24T01:11:30.450Z,1022.25
2023-05-24T01:12:30.368Z,1022.25
2023-05-24T01:13:30.358Z,1022.24
2023-05-24T01:14:30.326Z,1022.27
2023-05-24T01:15:30.328Z,1022.24
2023-05-24T01:16:30.313Z,1022.23
2023-05-24T01:17:30.292Z,1022.28
2023-05-24T01:18:30.324Z,1022.20
2023-05-24T01:19:30.314Z,1022.26
2023-05-24T01:20:30.274Z,1022.21
2023-05-24T01:21:30.239Z,1022.19
2023-05-24T01:22:30.266Z,1022.18
2023-05-24T01:23:30.428Z,1022.17
2023-05-24T01:24:30.330Z,1022.19
2023-05-24T01:25:30.498Z,1022.17
2023-05-24T01:26:30.135Z,1022.22
2023-05-24T01:27:30.171Z,1022.15
2023-05-24T01:28:30.138Z,1022.10
2023-05-24T01:29:30.137Z,1022.05
2023-05-24T01:30:30.146Z,1022.06
2023-05-24T01:31:30.165Z,1022.12
2023-05-24T01:32:30.084Z,1022.11
2023-05-24T01:33:30.112Z,1022.11
2023-05-24T01:34:30.055Z,1022.09
2023-05-24T01:35:30.049Z,1022.08
2023-05-24T01:36:30.060Z,1022.07
2023-05-24T01:37:29.999Z,1022.09
2023-05-24T01:38:30.007Z,1022.12
2023-05-24T01:39:29.971Z,1022.10
2023-05-24T01:40:29.964Z,1022.10
2023-05-24T01:41:30.029Z,1022.12
2023-05-24T01:42:29.936Z,1022.06
2023-05-24T01:43:29.923Z,1022.07
2023-05-24T01:44:29.989Z,1022.08
2023-05-24T01:45:29.915Z,1022.06
2023-05-24T01:46:29.933Z,1022.05
2023-05-24T01:47:30.412Z,1022.00
2023-05-24T01:48:29.852Z,1022.03
2023-05-24T01:49:29.852Z,1021.99
2023-05-24T01:50:29.854Z,1021.96
2023-05-24T01:51:29.839Z,1021.95
2023-05-24T01:52:29.860Z,1021.95
2023-05-24T01:53:29.850Z,1021.96
2023-05-24T01:54:29.792Z,1021.97
2023-05-24T01:55:29.784Z,1021.95
2023-05-24T01:56:29.769Z,1021.97
2023-05-24T01:57:29.804Z,1021.95
2023-05-24T01:58:29.802Z,1021.98
2023-05-24T01:59:29.811Z,1021.98
2023-05-24T02:00:29.744Z,1021.95
2023-05-24T02:01:29.747Z,1021.93
2023-05-24T02:02:29.764Z,1021.92
2023-05-24T02:03:29.741Z,1021.98
2023-05-24T02:04:29.681Z,1021.93
2023-05-24T02:05:29.633Z,1021.90
2023-05-24T02:06:29.634Z,1021.93
2023-05-24T02:07:29.658Z,1021.94
2023-05-24T02:08:29.616Z,1021.88
2023-05-24T02:09:29.634Z,1021.87
2023-05-24T02:10:29.568Z,1021.88
2023-05-24T02:11:29.576Z,1021.92
2023-05-24T02:12:29.546Z,1021.93
2023-05-24T02:13:29.567Z,1021.90
2023-05-24T02:14:29.544Z,1021.94
2023-05-24T02:15:29.521Z,1021.91
2023-05-24T02:16:29.530Z,1021.94
2023-05-24T02:17:29.563Z,1021.90
2023-05-24T02:18:29.536Z,1021.90
2023-05-24T02:19:29.460Z,1021.91
2023-05-24T02:20:29.550Z,1021.93
2023-05-24T02:21:29.480Z,1021.91
2023-05-24T02:22:29.430Z,1021.88
2023-05-24T02:23:29.468Z,1021.90
2023-05-24T02:24:29.433Z,1021.94
2023-05-24T02:25:37.889Z,1021.91
2023-05-24T02:26:29.432Z,1021.93
2023-05-24T02:27:29.370Z,1021.95
2023-05-24T02:28:29.800Z,1021.92
2023-05-24T02:32:03.666Z,1022.01
2023-05-24T02:32:51.708Z,1022.02
2023-05-24T02:33:48.183Z,1022.03
2023-05-24T02:34:49.915Z,1022.03
2023-05-24T02:35:47.210Z,1022.05
2023-05-24T02:36:38.553Z,1022.05
2023-05-24T02:37:38.347Z,1022.03
2023-05-24T02:38:38.324Z,1022.06
2023-05-24T02:39:38.447Z,1022.08
2023-05-24T02:40:38.364Z,1022.15
2023-05-24T02:41:38.223Z,1022.08
2023-05-24T02:42:38.222Z,1022.13
2023-05-24T02:43:38.231Z,1022.13
2023-05-24T02:44:38.438Z,1022.13
2023-05-24T02:45:38.406Z,1022.15
2023-05-24T02:46:38.281Z,1022.14
2023-05-24T02:47:38.423Z,1022.16
2023-05-24T02:48:38.323Z,1022.11
2023-05-24T02:49:38.485Z,1022.04
2023-05-24T02:50:38.296Z,1022.06
2023-05-24T02:51:38.287Z,1022.05
2023-05-24T02:52:38.784Z,1022.07
2023-05-24T02:53:38.428Z,1022.06
2023-05-24T02:54:38.451Z,1022.08
2023-05-24T02:55:38.127Z,1022.06
2023-05-24T02:56:38.176Z,1022.06
2023-05-24T02:57:38.057Z,1022.06
2023-05-24T02:58:38.055Z,1022.07
2023-05-24T02:59:38.365Z,1022.04
2023-05-24T03:00:38.050Z,1022.05
2023-05-24T03:01:38.070Z,1022.05
2023-05-24T03:02:38.611Z,1022.01
2023-05-24T03:03:38.093Z,1022.05
2023-05-24T03:04:37.984Z,1022.02
2023-05-24T03:05:37.996Z,1022.02
2023-05-24T03:06:37.947Z,1022.01
2023-05-24T03:07:37.999Z,1022.01
2023-05-24T03:08:38.041Z,1021.98
2023-05-24T03:09:37.897Z,1021.99
2023-05-24T03:10:37.896Z,1021.95
2023-05-24T03:11:37.893Z,1021.88
2023-05-24T03:12:38.057Z,1021.93
2023-05-24T03:13:37.826Z,1021.94
2023-05-24T03:14:37.865Z,1021.93
2023-05-24T03:15:37.773Z,1021.93
2023-05-24T03:16:37.877Z,1021.97
2023-05-24T03:17:39.920Z,1021.93
2023-05-24T03:18:38.085Z,1021.94
2023-05-24T03:19:37.819Z,1021.97
2023-05-24T03:20:37.831Z,1021.98
2023-05-24T03:21:37.800Z,1021.95
2023-05-24T03:22:37.741Z,1021.99
2023-05-24T03:23:37.993Z,1021.98
2023-05-24T03:24:37.763Z,1022.00
2023-05-24T03:25:37.683Z,1021.91
2023-05-24T03:26:37.642Z,1021.91
2023-05-24T03:27:37.609Z,1021.91
2023-05-24T03:28:37.618Z,1021.89
2023-05-24T03:29:37.673Z,1021.85
2023-05-24T03:30:37.619Z,1021.91
2023-05-24T03:31:37.579Z,1021.85
2023-05-24T03:32:37.651Z,1021.87
2023-05-24T03:33:37.565Z,1021.92
2023-05-24T03:34:38.500Z,1021.93
2023-05-24T03:35:37.544Z,1021.91
2023-05-24T03:36:37.563Z,1021.89
2023-05-24T03:37:37.986Z,1021.87
2023-05-24T03:38:37.692Z,1021.88
2023-05-24T03:39:37.476Z,1021.88
2023-05-24T03:40:37.451Z,1021.90
2023-05-24T03:41:37.419Z,1021.90
2023-05-24T03:42:37.447Z,1021.91
2023-05-24T03:43:37.378Z,1021.91
2023-05-24T03:44:37.359Z,1021.95
2023-05-24T03:45:39.717Z,1021.94
2023-05-24T03:46:37.599Z,1021.93
2023-05-24T03:47:37.413Z,1021.93
2023-05-24T03:48:37.440Z,1021.92
2023-05-24T03:49:37.390Z,1021.93
2023-05-24T03:50:37.462Z,1021.93
2023-05-24T03:51:37.309Z,1021.93
2023-05-24T03:52:37.396Z,1021.94
2023-05-24T03:53:37.280Z,1021.98
2023-05-24T03:54:37.320Z,1022.00
2023-05-24T03:55:37.240Z,1022.03
2023-05-24T03:56:37.337Z,1021.98
2023-05-24T03:57:37.281Z,1022.00
2023-05-24T03:58:37.234Z,1021.98
2023-05-24T03:59:38.753Z,1021.99
2023-05-24T04:00:37.204Z,1021.98
2023-05-24T04:01:37.219Z,1021.97
2023-05-24T04:02:37.338Z,1021.99
2023-05-24T04:03:37.247Z,1021.98
2023-05-24T04:04:37.177Z,1022.01
2023-05-24T04:05:37.143Z,1022.00
2023-05-24T04:06:37.198Z,1022.01
2023-05-24T04:07:37.065Z,1022.05
2023-05-24T04:08:37.128Z,1022.00
2023-05-24T04:09:37.078Z,1022.01
2023-05-24T04:10:37.029Z,1022.01
2023-05-24T04:11:37.096Z,1022.05
2023-05-24T04:12:37.133Z,1022.06
2023-05-24T04:13:37.010Z,1022.06
2023-05-24T04:14:37.056Z,1022.04
2023-05-24T04:15:37.093Z,1022.04
2023-05-24T04:16:37.042Z,1022.01
2023-05-24T04:17:37.279Z,1022.03
2023-05-24T04:18:37.290Z,1022.06
2023-05-24T04:19:37.112Z,1022.04
2023-05-24T04:20:37.147Z,1022.08
2023-05-24T04:21:36.966Z,1022.10
2023-05-24T04:22:36.913Z,1022.09
2023-05-24T04:23:36.902Z,1022.11
2023-05-24T04:24:36.908Z,1022.10
2023-05-24T04:25:37.116Z,1022.12
2023-05-24T04:26:36.982Z,1022.13
2023-05-24T04:27:36.988Z,1022.15
2023-05-24T04:28:36.814Z,1022.12
2023-05-24T04:29:36.882Z,1022.16
2023-05-24T04:30:36.906Z,1022.17
2023-05-24T04:31:36.895Z,1022.17
2023-05-24T04:32:36.854Z,1022.16
2023-05-24T04:33:36.849Z,1022.16
2023-05-24T04:34:36.739Z,1022.15
2023-05-24T04:35:36.703Z,1022.20
2023-05-24T04:36:36.830Z,1022.20
2023-05-24T04:37:37.709Z,1022.18
2023-05-24T04:38:36.749Z,1022.16
2023-05-24T04:39:36.728Z,1022.17
2023-05-24T04:40:36.629Z,1022.15
2023-05-24T04:41:36.634Z,1022.17
2023-05-24T04:42:36.606Z,1022.15
2023-05-24T04:43:36.621Z,1022.17
2023-05-24T04:44:36.647Z,1022.18
2023-05-24T04:45:36.585Z,1022.12
2023-05-24T04:46:36.627Z,1022.16
2023-05-24T04:47:36.590Z,1022.18
2023-05-24T04:48:36.617Z,1022.22
2023-05-24T04:49:36.525Z,1022.19
2023-05-24T04:50:36.488Z,1022.23
2023-05-24T04:51:36.485Z,1022.24
2023-05-24T04:52:36.525Z,1022.23
2023-05-24T04:53:36.481Z,1022.22
2023-05-24T04:54:36.459Z,1022.18
2023-05-24T04:55:36.457Z,1022.20
2023-05-24T04:56:36.420Z,1022.22
2023-05-24T04:57:36.528Z,1022.21
2023-05-24T04:58:38.766Z,1022.22
2023-05-24T04:59:36.418Z,1022.21
2023-05-24T05:00:36.377Z,1022.26
2023-05-24T05:01:36.455Z,1022.30
2023-05-24T05:02:36.505Z,1022.32
2023-05-24T05:03:36.566Z,1022.32
2023-05-24T05:04:36.356Z,1022.34
2023-05-24T05:05:36.459Z,1022.35
2023-05-24T05:06:36.373Z,1022.36
2023-05-24T05:07:36.490Z,1022.40
2023-05-24T05:08:36.295Z,1022.37
2023-05-24T05:09:36.382Z,1022.33
2023-05-24T05:10:36.308Z,1022.35
2023-05-24T05:11:36.431Z,1022.34
2023-05-24T05:12:36.485Z,1022.31
2023-05-24T05:13:36.327Z,1022.33
2023-05-24T05:14:36.218Z,1022.34
2023-05-24T05:15:36.347Z,1022.31
2023-05-24T05:16:36.224Z,1022.35
2023-05-24T05:17:36.260Z,1022.29
2023-05-24T05:18:36.188Z,1022.30
2023-05-24T05:19:36.136Z,1022.28
2023-05-24T05:20:36.264Z,1022.29
2023-05-24T05:21:36.200Z,1022.30
2023-05-24T05:22:37.527Z,1022.29
2023-05-24T05:23:36.224Z,1022.24
2023-05-24T05:24:36.095Z,1022.21
2023-05-24T05:25:36.076Z,1022.23
2023-05-24T05:26:36.115Z,1022.27
2023-05-24T05:27:43.979Z,1022.28
2023-05-24T05:31:45.494Z,1022.36
2023-05-24T05:33:56.599Z,1022.33
2023-05-24T05:34:57.239Z,1022.31
2023-05-24T05:35:56.346Z,1022.34
2023-05-24T05:36:57.175Z,1022.32
2023-05-24T05:37:56.213Z,1022.34
2023-05-24T05:38:56.407Z,1022.33
2023-05-24T05:39:56.199Z,1022.35
2023-05-24T05:40:56.217Z,1022.32
2023-05-24T05:41:56.224Z,1022.33
2023-05-24T05:42:56.142Z,1022.33
2023-05-24T05:43:56.142Z,1022.33
2023-05-24T05:44:56.131Z,1022.34
2023-05-24T05:45:56.158Z,1022.27
2023-05-24T05:46:56.108Z,1022.21
2023-05-24T05:47:56.251Z,1022.20
2023-05-24T05:48:56.092Z,1022.19
2023-05-24T05:49:56.110Z,1022.15
2023-05-24T05:50:56.030Z,1022.14
2023-05-24T05:51:57.018Z,1022.14
2023-05-24T05:52:56.151Z,1022.16
2023-05-24T05:53:56.001Z,1022.14
2023-05-24T05:54:55.973Z,1022.14
2023-05-24T05:55:56.030Z,1022.16
2023-05-24T05:56:56.218Z,1022.16
2023-05-24T05:57:55.970Z,1022.18
2023-05-24T05:58:55.922Z,1022.16
2023-05-24T05:59:55.911Z,1022.18
2023-05-24T06:00:55.930Z,1022.16
2023-05-24T06:01:55.896Z,1022.22
2023-05-24T06:02:55.935Z,1022.25
2023-05-24T06:03:55.972Z,1022.30
2023-05-24T06:04:55.906Z,1022.34
2023-05-24T06:05:55.831Z,1022.39
2023-05-24T06:06:55.807Z,1022.43
2023-05-24T06:07:55.830Z,1022.41
2023-05-24T06:08:55.796Z,1022.40
2023-05-24T06:09:55.792Z,1022.48
2023-05-24T06:10:55.766Z,1022.48
2023-05-24T06:11:55.983Z,1022.54
2023-05-24T06:12:55.808Z,1022.56
2023-05-24T06:13:55.916Z,1022.51
2023-05-24T06:14:55.700Z,1022.53
2023-05-24T06:16:08.579Z,1022.50
2023-05-24T06:16:58.036Z,1022.42
2023-05-24T06:17:55.753Z,1022.45
2023-05-24T06:19:05.355Z,1022.44
2023-05-24T06:19:56.763Z,1022.44
2023-05-24T06:20:55.856Z,1022.49
2023-05-24T06:21:55.763Z,1022.50
2023-05-24T06:23:03.801Z,1022.48
2023-05-24T06:23:56.647Z,1022.46
2023-05-24T06:24:55.609Z,1022.45
2023-05-24T06:25:55.634Z,1022.44
2023-05-24T06:26:55.620Z,1022.45
2023-05-24T06:27:55.576Z,1022.40
2023-05-24T06:28:55.512Z,1022.44
2023-05-24T06:29:55.537Z,1022.41
2023-05-24T06:30:55.558Z,1022.42
2023-05-24T06:31:55.724Z,1022.38
2023-05-24T06:32:55.595Z,1022.42
2023-05-24T06:34:03.686Z,1022.39
2023-05-24T06:34:56.481Z,1022.41
2023-05-24T06:35:55.432Z,1022.41
2023-05-24T06:36:55.429Z,1022.41
2023-05-24T06:37:55.401Z,1022.42
2023-05-24T06:38:55.462Z,1022.43
2023-05-24T06:39:55.441Z,1022.45
2023-05-24T06:40:55.532Z,1022.48
2023-05-24T06:41:55.343Z,1022.44
2023-05-24T06:42:55.371Z,1022.45
2023-05-24T06:43:55.306Z,1022.40
2023-05-24T06:44:55.669Z,1022.39
2023-05-24T06:45:55.675Z,1022.41
2023-05-24T06:46:55.472Z,1022.42
2023-05-24T06:47:55.461Z,1022.41
2023-05-24T06:48:57.551Z,1022.43
2023-05-24T06:49:55.429Z,1022.42
2023-05-24T06:50:55.753Z,1022.44
2023-05-24T06:51:55.203Z,1022.40
2023-05-24T06:52:56.548Z,1022.45
2023-05-24T06:53:55.231Z,1022.49
2023-05-24T06:54:55.168Z,1022.48
2023-05-24T06:55:57.469Z,1022.49
2023-05-24T06:56:55.586Z,1022.42
2023-05-24T06:57:55.115Z,1022.44
2023-05-24T06:58:55.168Z,1022.45
2023-05-24T06:59:55.161Z,1022.45
2023-05-24T07:00:55.080Z,1022.43
2023-05-24T07:01:55.062Z,1022.41
2023-05-24T07:02:55.050Z,1022.39
2023-05-24T07:03:55.102Z,1022.41
2023-05-24T07:04:55.343Z,1022.37
2023-05-24T07:05:55.193Z,1022.40
2023-05-24T07:06:55.168Z,1022.37
2023-05-24T07:07:55.057Z,1022.45
2023-05-24T07:08:55.128Z,1022.40
2023-05-24T07:09:55.221Z,1022.37
2023-05-24T07:10:55.133Z,1022.42
2023-05-24T07:11:55.012Z,1022.40
2023-05-24T07:12:55.083Z,1022.37
2023-05-24T07:13:55.028Z,1022.42
2023-05-24T07:14:54.856Z,1022.40
2023-05-24T07:15:54.877Z,1022.41
2023-05-24T07:16:54.851Z,1022.41
2023-05-24T07:17:54.973Z,1022.42
2023-05-24T07:18:54.840Z,1022.39
2023-05-24T07:19:54.808Z,1022.41
2023-05-24T07:20:54.961Z,1022.44
2023-05-24T07:21:54.844Z,1022.38
2023-05-24T07:22:54.823Z,1022.39
2023-05-24T07:23:54.749Z,1022.42
2023-05-24T07:24:54.795Z,1022.43
2023-05-24T07:25:54.877Z,1022.45
2023-05-24T07:26:54.782Z,1022.47
2023-05-24T07:27:54.697Z,1022.46
2023-05-24T07:28:54.726Z,1022.45
2023-05-24T07:29:54.867Z,1022.48
2023-05-24T07:30:54.712Z,1022.52
2023-05-24T07:31:54.864Z,1022.48
2023-05-24T07:32:54.805Z,1022.50
2023-05-24T07:33:54.598Z,1022.49
2023-05-24T07:34:54.562Z,1022.48
2023-05-24T07:35:54.594Z,1022.51
2023-05-24T07:36:54.596Z,1022.50
2023-05-24T07:37:54.693Z,1022.46
2023-05-24T07:38:54.645Z,1022.49
2023-05-24T07:39:54.547Z,1022.42
2023-05-24T07:40:54.553Z,1022.42
2023-05-24T07:41:54.775Z,1022.41
2023-05-24T07:42:54.493Z,1022.38
2023-05-24T07:43:54.681Z,1022.37
2023-05-24T07:44:54.538Z,1022.40
2023-05-24T07:45:54.533Z,1022.35
2023-05-24T07:46:54.508Z,1022.30
2023-05-24T07:47:56.765Z,1022.32
2023-05-24T07:48:54.584Z,1022.30
2023-05-24T07:49:54.401Z,1022.31
2023-05-24T07:50:54.370Z,1022.33
2023-05-24T07:51:54.420Z,1022.31
2023-05-24T07:52:54.500Z,1022.30
2023-05-24T07:53:54.367Z,1022.29
2023-05-24T07:54:54.359Z,1022.28
2023-05-24T07:55:54.313Z,1022.32
2023-05-24T07:56:54.305Z,1022.34
2023-05-24T07:57:54.334Z,1022.32
2023-05-24T07:58:54.297Z,1022.31
2023-05-24T07:59:54.275Z,1022.37
2023-05-24T08:00:54.236Z,1022.36
2023-05-24T08:01:54.237Z,1022.42
2023-05-24T08:02:54.462Z,1022.42
2023-05-24T08:03:54.313Z,1022.41
2023-05-24T08:04:54.177Z,1022.42
2023-05-24T08:05:54.210Z,1022.33
2023-05-24T08:06:54.180Z,1022.40
2023-05-24T08:07:54.234Z,1022.40
2023-05-24T08:08:54.202Z,1022.40
2023-05-24T08:09:54.130Z,1022.44
2023-05-24T08:10:54.073Z,1022.45
2023-05-24T08:11:54.097Z,1022.47
2023-05-24T08:12:54.089Z,1022.48
2023-05-24T08:13:54.043Z,1022.52
2023-05-24T08:14:54.015Z,1022.51
2023-05-24T08:15:54.095Z,1022.51
2023-05-24T08:16:54.229Z,1022.48
2023-05-24T08:17:54.112Z,1022.49
2023-05-24T08:18:55.346Z,1022.43
2023-05-24T08:19:54.031Z,1022.45
2023-05-24T08:20:54.006Z,1022.43
2023-05-24T08:21:54.086Z,1022.48
2023-05-24T08:22:54.010Z,1022.42
2023-05-24T08:23:53.951Z,1022.39
2023-05-24T08:24:53.947Z,1022.47
2023-05-24T08:25:53.883Z,1022.45
2023-05-24T08:26:53.893Z,1022.46
2023-05-24T08:27:53.915Z,1022.42
2023-05-24T08:28:53.905Z,1022.37
2023-05-24T08:29:56.831Z,1022.38
2023-05-24T08:30:53.888Z,1022.35
2023-05-24T08:31:54.049Z,1022.34
2023-05-24T08:32:53.881Z,1022.35
2023-05-24T08:33:53.793Z,1022.37
2023-05-24T08:35:00.307Z,1022.30
2023-05-24T08:35:54.781Z,1022.30
2023-05-24T08:36:53.852Z,1022.30
2023-05-24T08:37:53.759Z,1022.27
2023-05-24T08:38:53.829Z,1022.29
2023-05-24T08:39:53.697Z,1022.23
2023-05-24T08:40:53.693Z,1022.26
2023-05-24T08:42:08.055Z,1022.22
2023-05-24T08:42:54.682Z,1022.25
2023-05-24T08:43:53.637Z,1022.19
2023-05-24T08:44:53.696Z,1022.20
2023-05-24T08:45:53.798Z,1022.25
2023-05-24T08:46:53.651Z,1022.22
2023-05-24T08:47:53.762Z,1022.19
2023-05-24T08:48:53.810Z,1022.16
2023-05-24T08:49:53.667Z,1022.18
2023-05-24T08:50:53.580Z,1022.19
2023-05-24T08:51:53.709Z,1022.19
2023-05-24T08:52:53.559Z,1022.15
2023-05-24T08:53:53.670Z,1022.19
2023-05-24T08:54:53.635Z,1022.16
2023-05-24T08:55:53.534Z,1022.16
2023-05-24T08:56:53.484Z,1022.14
2023-05-24T08:57:53.508Z,1022.12
2023-05-24T08:58:53.615Z,1022.12
2023-05-24T08:59:53.466Z,1022.16
2023-05-24T09:00:53.498Z,1022.10
2023-05-24T09:01:53.454Z,1022.09
2023-05-24T09:02:53.496Z,1022.15
2023-05-24T09:03:53.357Z,1022.17
2023-05-24T09:04:53.436Z,1022.13
2023-05-24T09:05:53.482Z,1022.13
2023-05-24T09:06:53.360Z,1022.13
2023-05-24T09:07:53.333Z,1022.18
2023-05-24T09:08:53.381Z,1022.14
2023-05-24T09:09:53.354Z,1022.15
2023-05-24T09:10:55.415Z,1022.18
2023-05-24T09:11:53.321Z,1022.18
2023-05-24T09:12:53.267Z,1022.15
2023-05-24T09:13:53.227Z,1022.12
2023-05-24T09:14:53.270Z,1022.11
2023-05-24T09:15:53.342Z,1022.10
2023-05-24T09:16:53.220Z,1022.05
2023-05-24T09:17:53.206Z,1022.08
2023-05-24T09:18:53.168Z,1022.07
2023-05-24T09:19:53.155Z,1022.08
2023-05-24T09:20:53.418Z,1022.12
2023-05-24T09:21:53.562Z,1022.15
2023-05-24T09:22:53.260Z,1022.06
2023-05-24T09:23:53.160Z,1022.10
2023-05-24T09:24:53.107Z,1022.12
2023-05-24T09:25:53.313Z,1022.06
2023-05-24T09:26:53.113Z,1022.06
2023-05-24T09:27:53.081Z,1022.21
2023-05-24T09:28:53.051Z,1022.16
2023-05-24T09:29:53.093Z,1022.19
2023-05-24T09:30:53.153Z,1022.15
2023-05-24T09:31:53.068Z,1022.14
2023-05-24T09:32:53.038Z,1022.15
2023-05-24T09:33:52.969Z,1022.14
2023-05-24T09:34:53.009Z,1022.21
2023-05-24T09:35:53.640Z,1022.17
2023-05-24T09:36:52.963Z,1022.15
2023-05-24T09:37:53.269Z,1022.14
2023-05-24T09:38:52.953Z,1022.18
2023-05-24T09:39:52.891Z,1022.16
2023-05-24T09:40:52.843Z,1022.11
2023-05-24T09:41:52.947Z,1022.13
2023-05-24T09:42:52.826Z,1022.15
2023-05-24T09:43:52.837Z,1022.17
2023-05-24T09:44:52.869Z,1022.15
2023-05-24T09:45:52.921Z,1022.15
2023-05-24T09:46:52.852Z,1022.17
2023-05-24T09:47:52.845Z,1022.14
2023-05-24T09:48:52.770Z,1022.12
2023-05-24T09:49:52.762Z,1022.10
2023-05-24T09:50:52.808Z,1022.08
2023-05-24T09:51:52.942Z,1022.03
2023-05-24T09:52:52.732Z,1022.02
2023-05-24T09:53:52.712Z,1022.04
2023-05-24T09:54:52.729Z,1022.02
2023-05-24T09:55:52.655Z,1022.01
2023-05-24T09:56:52.697Z,1022.03
2023-05-24T09:57:52.765Z,1022.01
2023-05-24T09:58:52.847Z,1022.01
2023-05-24T09:59:52.655Z,1021.98
2023-05-24T10:00:52.729Z,1021.93
2023-05-24T10:01:52.675Z,1021.94
2023-05-24T10:02:53.842Z,1021.95
2023-05-24T10:03:52.660Z,1021.94
2023-05-24T10:04:52.789Z,1022.04
2023-05-24T10:05:52.602Z,1021.96
2023-05-24T10:06:52.541Z,1021.93
2023-05-24T10:07:52.634Z,1022.00
2023-05-24T10:08:52.512Z,1021.99
2023-05-24T10:09:52.491Z,1021.93
2023-05-24T10:10:52.488Z,1022.00
2023-05-24T10:11:52.448Z,1022.06
2023-05-24T10:12:52.429Z,1021.97
2023-05-24T10:13:52.429Z,1022.03
2023-05-24T10:14:52.416Z,1022.04
2023-05-24T10:15:52.380Z,1021.99
2023-05-24T10:16:52.430Z,1021.98
2023-05-24T10:17:52.607Z,1022.01
2023-05-24T10:18:52.362Z,1022.00
2023-05-24T10:19:52.424Z,1021.99
2023-05-24T10:20:52.832Z,1021.94
2023-05-24T10:21:52.362Z,1022.00
2023-05-24T10:22:52.313Z,1021.98
2023-05-24T10:23:52.349Z,1022.00
2023-05-24T10:24:52.323Z,1021.99
2023-05-24T10:25:52.317Z,1021.91
2023-05-24T10:26:52.230Z,1021.96
2023-05-24T10:27:52.223Z,1021.99
2023-05-24T10:28:52.273Z,1021.98
2023-05-24T10:29:52.209Z,1021.93
2023-05-24T10:30:52.429Z,1021.95
2023-05-24T10:31:52.234Z,1021.91
2023-05-24T10:32:52.295Z,1021.95
2023-05-24T10:33:52.643Z,1021.92
2023-05-24T10:34:52.376Z,1021.93
2023-05-24T10:35:52.180Z,1022.00
2023-05-24T10:36:52.128Z,1021.98
2023-05-24T10:37:52.116Z,1021.98
2023-05-24T10:38:52.181Z,1021.98
2023-05-24T10:39:52.100Z,1021.96
2023-05-24T10:40:52.386Z,1021.92
2023-05-24T10:41:52.059Z,1021.91
2023-05-24T10:42:52.094Z,1021.94
2023-05-24T10:44:07.739Z,1021.97
2023-05-24T10:44:53.490Z,1022.00
2023-05-24T10:45:52.313Z,1021.98
2023-05-24T10:46:52.386Z,1022.00
2023-05-24T10:47:52.143Z,1022.01
2023-05-24T10:48:52.475Z,1021.99
2023-05-24T10:49:52.200Z,1021.99
2023-05-24T10:50:52.053Z,1022.01
2023-05-24T10:51:52.006Z,1022.01
2023-05-24T10:52:52.109Z,1021.99
2023-05-24T10:53:51.870Z,1022.01
2023-05-24T10:55:51.911Z,1022.09
2023-05-24T10:56:51.876Z,1022.08
2023-05-24T10:57:51.882Z,1022.04
2023-05-24T10:58:51.933Z,1022.05
2023-05-24T10:59:51.919Z,1022.04
2023-05-24T11:00:52.161Z,1022.06
2023-05-24T11:01:52.314Z,1022.05
2023-05-24T11:02:51.958Z,1022.08
2023-05-24T11:03:51.850Z,1022.09
2023-05-24T11:04:51.930Z,1022.12
2023-05-24T11:05:51.940Z,1022.08
2023-05-24T11:06:51.669Z,1022.07
2023-05-24T11:07:51.767Z,1022.09
2023-05-24T11:08:51.709Z,1022.04
2023-05-24T11:09:51.835Z,1022.10
2023-05-24T11:10:51.812Z,1022.05
2023-05-24T11:11:51.643Z,1022.07
2023-05-24T11:12:51.875Z,1022.12
2023-05-24T11:13:51.612Z,1022.14
2023-05-24T11:14:51.576Z,1022.11
2023-05-24T11:15:51.888Z,1022.15
2023-05-24T11:16:52.032Z,1022.13
2023-05-24T11:17:52.388Z,1022.11
2023-05-24T11:18:51.512Z,1022.17
2023-05-24T11:19:51.951Z,1022.16
2023-05-24T11:20:51.563Z,1022.23
2023-05-24T11:21:51.560Z,1022.23
2023-05-24T11:22:51.547Z,1022.20
2023-05-24T11:23:51.538Z,1022.18
2023-05-24T11:24:51.464Z,1022.20
2023-05-24T11:25:51.413Z,1022.16
2023-05-24T11:26:51.567Z,1022.14
2023-05-24T11:27:51.552Z,1022.15
2023-05-24T11:28:51.434Z,1022.16
2023-05-24T11:29:51.445Z,1022.13
2023-05-24T11:30:51.428Z,1022.11
2023-05-24T11:31:51.481Z,1022.15
2023-05-24T11:32:51.573Z,1022.13
2023-05-24T11:33:51.354Z,1022.11
2023-05-24T11:34:51.414Z,1022.09
2023-05-24T11:35:51.334Z,1022.12
2023-05-24T11:36:51.363Z,1022.09
2023-05-24T11:37:51.497Z,1022.09
2023-05-24T11:38:51.280Z,1022.10
2023-05-24T11:39:51.490Z,1022.08
2023-05-24T11:40:53.653Z,1022.10
2023-05-24T11:41:51.390Z,1022.07
2023-05-24T11:42:51.200Z,1022.06
2023-05-24T11:43:51.212Z,1022.07
2023-05-24T11:44:51.297Z,1021.97
2023-05-24T11:45:51.255Z,1022.00
2023-05-24T11:46:51.229Z,1021.96
2023-05-24T11:47:51.273Z,1022.00
2023-05-24T11:48:52.357Z,1022.00
2023-05-24T11:49:51.239Z,1021.97
2023-05-24T11:50:51.526Z,1021.94
2023-05-24T11:51:51.550Z,1021.96
2023-05-24T11:52:51.295Z,1021.94
2023-05-24T11:53:53.819Z,1021.91
2023-05-24T11:54:51.384Z,1021.94
2023-05-24T11:56:11.833Z,1021.96
2023-05-24T11:56:52.019Z,1021.95
2023-05-24T11:57:52.035Z,1021.88
2023-05-24T11:58:52.892Z,1021.90
2023-05-24T11:59:59.557Z,1021.87
2023-05-24T12:00:51.631Z,1021.85
2023-05-24T12:01:51.465Z,1021.85
2023-05-24T12:04:11.520Z,1021.85
2023-05-24T12:05:11.518Z,1021.84
2023-05-24T12:06:09.420Z,1021.83
2023-05-24T12:07:10.203Z,1021.80
2023-05-24T12:08:12.436Z,1021.82
2023-05-24T12:09:14.322Z,1021.81
2023-05-24T12:10:10.996Z,1021.78
2023-05-24T12:12:34.180Z,1021.84
2023-05-24T12:13:29.667Z,1021.78
2023-05-24T12:14:27.656Z,1021.82
2023-05-24T12:15:26.804Z,1021.87